Schedule Details

Flight Number: CPX220
Departure: March Air Reserve Base (KRIV) at N/A
Arrival: Seattle-Tacoma International Airport (KSEA) at N/A
Route: SLI J78 LAX J1 AVE J189 LMT HAWKZ7


Current Weather Information
KRIV 180614Z AUTO 24006KT 10SM BKN022 BKN029 OVC055 07/07 A2995 RMK AO2 RAB05E14 CIG 022V029 SLP144
KSEA 180553Z 14005KT 10SM FEW026 SCT110 03/01 A3030 RMK AO2 SLP271 T00280011 10061 20022 51012

Route Map